sensor_id;sensor_type;location;lat;lon;timestamp;pressure;altitude;pressure_sealevel;temperature;humidity
78932;BME280;68331;53.362;55.932;2023-06-22T00:00:50;99507.50;;;8.54;60.35
78932;BME280;68331;53.362;55.932;2023-06-22T00:03:18;99517.09;;;8.57;60.61
78932;BME280;68331;53.362;55.932;2023-06-22T00:05:46;99504.78;;;8.57;60.73
78932;BME280;68331;53.362;55.932;2023-06-22T00:08:13;99511.72;;;8.60;60.45
78932;BME280;68331;53.362;55.932;2023-06-22T00:10:39;99515.31;;;8.57;60.57
78932;BME280;68331;53.362;55.932;2023-06-22T00:13:07;99520.81;;;8.50;61.00
78932;BME280;68331;53.362;55.932;2023-06-22T00:15:35;99526.16;;;8.47;61.12
78932;BME280;68331;53.362;55.932;2023-06-22T00:18:01;99526.31;;;8.41;61.48
78932;BME280;68331;53.362;55.932;2023-06-22T00:20:28;99541.16;;;8.43;61.41
78932;BME280;68331;53.362;55.932;2023-06-22T00:22:55;99540.13;;;8.49;61.38
78932;BME280;68331;53.362;55.932;2023-06-22T00:25:21;99545.22;;;8.53;61.13
78932;BME280;68331;53.362;55.932;2023-06-22T00:27:47;99540.81;;;8.55;61.20
78932;BME280;68331;53.362;55.932;2023-06-22T00:30:15;99543.28;;;8.60;61.09
78932;BME280;68331;53.362;55.932;2023-06-22T00:32:42;99538.84;;;8.62;60.95
78932;BME280;68331;53.362;55.932;2023-06-22T00:35:09;99547.59;;;8.63;60.69
78932;BME280;68331;53.362;55.932;2023-06-22T00:37:36;99550.94;;;8.68;60.32
78932;BME280;68331;53.362;55.932;2023-06-22T00:40:03;99545.69;;;8.68;60.29
78932;BME280;68331;53.362;55.932;2023-06-22T00:42:30;99555.25;;;8.70;59.77
78932;BME280;68331;53.362;55.932;2023-06-22T00:44:56;99556.22;;;8.68;59.83
78932;BME280;68331;53.362;55.932;2023-06-22T00:47:24;99550.22;;;8.94;58.83
78932;BME280;68331;53.362;55.932;2023-06-22T00:49:52;99559.66;;;9.29;57.72
78932;BME280;68331;53.362;55.932;2023-06-22T00:52:24;99557.03;;;9.29;57.89
78932;BME280;68331;53.362;55.932;2023-06-22T00:54:59;99560.03;;;9.17;58.16
78932;BME280;68331;53.362;55.932;2023-06-22T00:57:31;99555.91;;;9.08;58.47
78932;BME280;68331;53.362;55.932;2023-06-22T00:59:57;99556.09;;;9.02;58.74
78932;BME280;68331;53.362;55.932;2023-06-22T01:02:23;99563.13;;;9.01;58.66
78932;BME280;68331;53.362;55.932;2023-06-22T01:04:51;99559.56;;;9.02;58.70
78932;BME280;68331;53.362;55.932;2023-06-22T01:10:03;99557.50;;;9.14;58.58
78932;BME280;68331;53.362;55.932;2023-06-22T01:12:40;99570.38;;;9.23;58.36
78932;BME280;68331;53.362;55.932;2023-06-22T01:15:25;99570.09;;;9.32;58.17
78932;BME280;68331;53.362;55.932;2023-06-22T01:17:55;99578.66;;;9.39;58.09
78932;BME280;68331;53.362;55.932;2023-06-22T01:20:22;99572.28;;;9.46;57.91
78932;BME280;68331;53.362;55.932;2023-06-22T01:25:57;99577.28;;;9.53;57.79
78932;BME280;68331;53.362;55.932;2023-06-22T01:31:14;99585.19;;;9.53;58.18
78932;BME280;68331;53.362;55.932;2023-06-22T01:33:44;99585.38;;;9.47;58.93
78932;BME280;68331;53.362;55.932;2023-06-22T01:36:13;99587.78;;;9.55;58.88
78932;BME280;68331;53.362;55.932;2023-06-22T01:38:40;99579.63;;;9.63;58.50
78932;BME280;68331;53.362;55.932;2023-06-22T01:41:08;99588.94;;;9.73;58.35
78932;BME280;68331;53.362;55.932;2023-06-22T01:43:35;99588.44;;;9.88;57.96
78932;BME280;68331;53.362;55.932;2023-06-22T01:46:03;99592.28;;;10.05;57.43
78932;BME280;68331;53.362;55.932;2023-06-22T01:48:30;99597.16;;;10.17;57.03
78932;BME280;68331;53.362;55.932;2023-06-22T01:50:57;99590.06;;;10.19;56.52
78932;BME280;68331;53.362;55.932;2023-06-22T01:53:24;99594.84;;;10.34;56.12
78932;BME280;68331;53.362;55.932;2023-06-22T01:55:52;99596.19;;;10.46;55.89
78932;BME280;68331;53.362;55.932;2023-06-22T01:58:20;99597.69;;;10.53;55.33
78932;BME280;68331;53.362;55.932;2023-06-22T02:00:52;99611.41;;;10.63;55.07
78932;BME280;68331;53.362;55.932;2023-06-22T02:03:34;99605.69;;;10.75;54.70
78932;BME280;68331;53.362;55.932;2023-06-22T02:06:05;99602.13;;;11.00;54.18
78932;BME280;68331;53.362;55.932;2023-06-22T02:08:40;99613.72;;;11.19;53.44
78932;BME280;68331;53.362;55.932;2023-06-22T02:11:09;99603.91;;;11.23;53.58
78932;BME280;68331;53.362;55.932;2023-06-22T02:13:37;99613.59;;;11.22;53.48
78932;BME280;68331;53.362;55.932;2023-06-22T02:16:13;99613.34;;;11.30;53.05
78932;BME280;68331;53.362;55.932;2023-06-22T02:18:48;99615.22;;;11.48;52.57
78932;BME280;68331;53.362;55.932;2023-06-22T02:21:17;99612.13;;;12.04;51.23
78932;BME280;68331;53.362;55.932;2023-06-22T02:23:43;99613.81;;;13.26;48.32
78932;BME280;68331;53.362;55.932;2023-06-22T02:26:09;99613.50;;;14.76;44.86
78932;BME280;68331;53.362;55.932;2023-06-22T02:28:35;99610.63;;;15.46;43.15
78932;BME280;68331;53.362;55.932;2023-06-22T02:31:02;99616.75;;;15.79;42.52
78932;BME280;68331;53.362;55.932;2023-06-22T02:33:28;99611.72;;;16.05;41.89
78932;BME280;68331;53.362;55.932;2023-06-22T02:35:54;99603.44;;;16.40;41.14
78932;BME280;68331;53.362;55.932;2023-06-22T02:38:22;99608.88;;;17.11;39.29
78932;BME280;68331;53.362;55.932;2023-06-22T02:40:52;99595.50;;;16.24;40.82
78932;BME280;68331;53.362;55.932;2023-06-22T02:43:18;99607.78;;;15.49;42.82
78932;BME280;68331;53.362;55.932;2023-06-22T02:45:44;99614.72;;;14.86;44.03
78932;BME280;68331;53.362;55.932;2023-06-22T02:48:11;99622.16;;;14.45;45.14
78932;BME280;68331;53.362;55.932;2023-06-22T02:50:38;99624.44;;;14.18;45.81
78932;BME280;68331;53.362;55.932;2023-06-22T02:53:05;99634.59;;;13.91;46.68
78932;BME280;68331;53.362;55.932;2023-06-22T02:55:36;99634.84;;;13.86;47.08
78932;BME280;68331;53.362;55.932;2023-06-22T02:58:02;99639.59;;;13.80;46.66
78932;BME280;68331;53.362;55.932;2023-06-22T03:00:33;99629.88;;;14.15;46.48
78932;BME280;68331;53.362;55.932;2023-06-22T03:03:00;99634.78;;;14.92;44.72
78932;BME280;68331;53.362;55.932;2023-06-22T03:05:26;99632.19;;;14.75;44.94
78932;BME280;68331;53.362;55.932;2023-06-22T03:07:53;99629.78;;;14.86;44.60
78932;BME280;68331;53.362;55.932;2023-06-22T03:10:19;99625.72;;;16.83;40.51
78932;BME280;68331;53.362;55.932;2023-06-22T03:12:45;99637.41;;;16.81;40.54
78932;BME280;68331;53.362;55.932;2023-06-22T03:15:12;99627.91;;;16.16;41.80
78932;BME280;68331;53.362;55.932;2023-06-22T03:17:39;99638.19;;;16.97;40.30
78932;BME280;68331;53.362;55.932;2023-06-22T03:20:09;99634.91;;;17.78;38.63
78932;BME280;68331;53.362;55.932;2023-06-22T03:22:41;99630.81;;;17.99;38.01
78932;BME280;68331;53.362;55.932;2023-06-22T03:25:08;99626.84;;;17.22;39.30
78932;BME280;68331;53.362;55.932;2023-06-22T03:27:47;99632.53;;;16.43;40.98
78932;BME280;68331;53.362;55.932;2023-06-22T03:30:14;99646.63;;;16.15;41.98
78932;BME280;68331;53.362;55.932;2023-06-22T03:32:40;99646.72;;;15.97;41.89
78932;BME280;68331;53.362;55.932;2023-06-22T03:35:07;99641.94;;;15.88;42.02
78932;BME280;68331;53.362;55.932;2023-06-22T03:37:35;99647.94;;;15.92;42.08
78932;BME280;68331;53.362;55.932;2023-06-22T03:40:02;99649.69;;;15.77;41.87
78932;BME280;68331;53.362;55.932;2023-06-22T03:42:35;99646.41;;;15.72;42.30
78932;BME280;68331;53.362;55.932;2023-06-22T03:45:03;99645.56;;;15.71;42.31
78932;BME280;68331;53.362;55.932;2023-06-22T03:47:34;99646.88;;;15.63;42.50
78932;BME280;68331;53.362;55.932;2023-06-22T03:50:00;99644.53;;;15.74;42.25
78932;BME280;68331;53.362;55.932;2023-06-22T03:52:31;99653.25;;;15.92;42.03
78932;BME280;68331;53.362;55.932;2023-06-22T03:54:58;99644.25;;;15.78;41.68
78932;BME280;68331;53.362;55.932;2023-06-22T03:57:24;99652.50;;;15.90;41.70
78932;BME280;68331;53.362;55.932;2023-06-22T03:59:50;99641.25;;;15.85;41.62
78932;BME280;68331;53.362;55.932;2023-06-22T04:02:16;99650.59;;;15.76;41.79
78932;BME280;68331;53.362;55.932;2023-06-22T04:04:42;99646.22;;;15.59;42.67
78932;BME280;68331;53.362;55.932;2023-06-22T04:07:11;99648.53;;;15.49;43.32
78932;BME280;68331;53.362;55.932;2023-06-22T04:09:37;99652.31;;;15.45;43.91
78932;BME280;68331;53.362;55.932;2023-06-22T04:12:03;99655.53;;;15.50;44.38
78932;BME280;68331;53.362;55.932;2023-06-22T04:14:30;99657.97;;;15.55;44.47
78932;BME280;68331;53.362;55.932;2023-06-22T04:16:57;99660.34;;;15.59;43.94
78932;BME280;68331;53.362;55.932;2023-06-22T04:19:23;99649.13;;;15.54;43.71
78932;BME280;68331;53.362;55.932;2023-06-22T04:21:49;99662.69;;;15.66;43.39
78932;BME280;68331;53.362;55.932;2023-06-22T04:24:15;99657.72;;;15.75;42.80
78932;BME280;68331;53.362;55.932;2023-06-22T04:26:41;99657.72;;;15.91;42.32
78932;BME280;68331;53.362;55.932;2023-06-22T04:29:08;99662.03;;;16.24;41.76
78932;BME280;68331;53.362;55.932;2023-06-22T04:31:37;99647.13;;;16.51;41.10
78932;BME280;68331;53.362;55.932;2023-06-22T04:34:05;99656.47;;;16.89;40.55
78932;BME280;68331;53.362;55.932;2023-06-22T04:36:38;99649.63;;;17.13;39.95
78932;BME280;68331;53.362;55.932;2023-06-22T04:39:05;99653.03;;;17.44;39.15
78932;BME280;68331;53.362;55.932;2023-06-22T04:41:32;99656.91;;;17.81;38.93
78932;BME280;68331;53.362;55.932;2023-06-22T04:44:16;99659.13;;;18.02;38.30
78932;BME280;68331;53.362;55.932;2023-06-22T04:46:58;99657.25;;;17.89;37.73
78932;BME280;68331;53.362;55.932;2023-06-22T04:49:30;99658.53;;;17.84;37.28
78932;BME280;68331;53.362;55.932;2023-06-22T04:52:04;99661.28;;;17.82;37.14
78932;BME280;68331;53.362;55.932;2023-06-22T04:54:31;99669.47;;;17.94;36.81
78932;BME280;68331;53.362;55.932;2023-06-22T04:57:02;99669.66;;;18.18;36.32
78932;BME280;68331;53.362;55.932;2023-06-22T04:59:30;99665.09;;;18.32;36.32
78932;BME280;68331;53.362;55.932;2023-06-22T05:02:01;99673.53;;;18.26;36.02
78932;BME280;68331;53.362;55.932;2023-06-22T05:04:29;99673.66;;;17.83;36.91
78932;BME280;68331;53.362;55.932;2023-06-22T05:06:57;99673.59;;;17.56;37.30
78932;BME280;68331;53.362;55.932;2023-06-22T05:09:24;99664.28;;;17.49;37.24
78932;BME280;68331;53.362;55.932;2023-06-22T05:11:51;99669.34;;;17.39;37.35
78932;BME280;68331;53.362;55.932;2023-06-22T05:14:18;99668.16;;;17.29;37.91
78932;BME280;68331;53.362;55.932;2023-06-22T05:16:44;99677.69;;;17.19;38.18
78932;BME280;68331;53.362;55.932;2023-06-22T05:19:11;99675.22;;;17.02;38.61
78932;BME280;68331;53.362;55.932;2023-06-22T05:21:38;99679.66;;;16.87;38.98
78932;BME280;68331;53.362;55.932;2023-06-22T05:24:04;99676.44;;;16.82;38.82
78932;BME280;68331;53.362;55.932;2023-06-22T05:26:31;99684.31;;;16.83;38.82
78932;BME280;68331;53.362;55.932;2023-06-22T05:29:02;99682.03;;;16.77;39.26
78932;BME280;68331;53.362;55.932;2023-06-22T05:31:28;99673.94;;;16.48;39.38
78932;BME280;68331;53.362;55.932;2023-06-22T05:33:55;99687.91;;;16.22;39.58
78932;BME280;68331;53.362;55.932;2023-06-22T05:36:22;99689.41;;;16.12;40.02
78932;BME280;68331;53.362;55.932;2023-06-22T05:38:52;99696.88;;;16.05;40.42
78932;BME280;68331;53.362;55.932;2023-06-22T05:41:18;99693.88;;;15.95;40.53
78932;BME280;68331;53.362;55.932;2023-06-22T05:43:44;99692.66;;;15.85;40.82
78932;BME280;68331;53.362;55.932;2023-06-22T05:46:10;99694.06;;;15.76;41.09
78932;BME280;68331;53.362;55.932;2023-06-22T05:48:36;99693.34;;;15.73;41.22
78932;BME280;68331;53.362;55.932;2023-06-22T05:51:02;99690.16;;;15.98;40.99
78932;BME280;68331;53.362;55.932;2023-06-22T05:53:28;99699.31;;;16.24;40.67
78932;BME280;68331;53.362;55.932;2023-06-22T05:55:54;99695.66;;;16.57;40.22
78932;BME280;68331;53.362;55.932;2023-06-22T05:58:20;99684.06;;;17.02;39.39
78932;BME280;68331;53.362;55.932;2023-06-22T06:00:46;99679.22;;;17.37;38.50
78932;BME280;68331;53.362;55.932;2023-06-22T06:03:14;99679.03;;;17.40;38.53
78932;BME280;68331;53.362;55.932;2023-06-22T06:05:43;99684.00;;;18.02;37.57
78932;BME280;68331;53.362;55.932;2023-06-22T06:08:10;99671.44;;;18.84;36.71
78932;BME280;68331;53.362;55.932;2023-06-22T06:10:37;99671.63;;;21.58;31.84
78932;BME280;68331;53.362;55.932;2023-06-22T06:13:03;99672.31;;;22.69;29.40
78932;BME280;68331;53.362;55.932;2023-06-22T06:15:31;99675.25;;;22.66;29.22
78932;BME280;68331;53.362;55.932;2023-06-22T06:17:57;99669.25;;;22.95;28.95
78932;BME280;68331;53.362;55.932;2023-06-22T06:20:25;99678.72;;;24.70;26.58
78932;BME280;68331;53.362;55.932;2023-06-22T06:22:52;99671.47;;;26.02;24.79
78932;BME280;68331;53.362;55.932;2023-06-22T06:25:18;99665.09;;;27.19;23.45
78932;BME280;68331;53.362;55.932;2023-06-22T06:27:46;99661.75;;;27.33;22.93
78932;BME280;68331;53.362;55.932;2023-06-22T06:30:14;99666.84;;;26.84;23.16
78932;BME280;68331;53.362;55.932;2023-06-22T06:32:41;99665.69;;;26.69;23.23
78932;BME280;68331;53.362;55.932;2023-06-22T06:35:08;99664.31;;;28.36;21.52
78932;BME280;68331;53.362;55.932;2023-06-22T06:37:43;99657.41;;;31.61;17.83
78932;BME280;68331;53.362;55.932;2023-06-22T06:40:11;99654.22;;;34.60;15.23
78932;BME280;68331;53.362;55.932;2023-06-22T06:42:38;99648.91;;;35.97;13.54
78932;BME280;68331;53.362;55.932;2023-06-22T06:45:08;99654.28;;;33.58;15.63
78932;BME280;68331;53.362;55.932;2023-06-22T06:47:35;99661.78;;;29.80;18.53
78932;BME280;68331;53.362;55.932;2023-06-22T06:50:02;99660.38;;;28.14;20.19
78932;BME280;68331;53.362;55.932;2023-06-22T06:52:30;99661.66;;;26.73;21.41
78932;BME280;68331;53.362;55.932;2023-06-22T06:54:56;99660.41;;;24.54;23.29
78932;BME280;68331;53.362;55.932;2023-06-22T06:57:22;99668.25;;;22.75;25.75
78932;BME280;68331;53.362;55.932;2023-06-22T06:59:49;99672.84;;;21.31;28.00
78932;BME280;68331;53.362;55.932;2023-06-22T07:02:15;99678.94;;;20.40;30.18
78932;BME280;68331;53.362;55.932;2023-06-22T07:04:42;99670.63;;;19.59;31.51
78932;BME280;68331;53.362;55.932;2023-06-22T07:07:08;99674.97;;;19.10;32.25
78932;BME280;68331;53.362;55.932;2023-06-22T07:09:34;99681.28;;;18.56;32.98
78932;BME280;68331;53.362;55.932;2023-06-22T07:12:00;99674.19;;;18.03;33.65
78932;BME280;68331;53.362;55.932;2023-06-22T07:14:26;99682.06;;;17.63;33.98
78932;BME280;68331;53.362;55.932;2023-06-22T07:16:52;99688.28;;;17.20;34.57
78932;BME280;68331;53.362;55.932;2023-06-22T07:19:24;99681.38;;;16.88;35.13
78932;BME280;68331;53.362;55.932;2023-06-22T07:21:51;99683.56;;;16.81;35.07
78932;BME280;68331;53.362;55.932;2023-06-22T07:24:17;99690.88;;;16.78;35.27
78932;BME280;68331;53.362;55.932;2023-06-22T07:26:47;99682.38;;;16.71;35.55
78932;BME280;68331;53.362;55.932;2023-06-22T07:29:14;99684.28;;;16.69;35.56
78932;BME280;68331;53.362;55.932;2023-06-22T07:31:39;99687.13;;;16.66;35.27
78932;BME280;68331;53.362;55.932;2023-06-22T07:34:06;99690.34;;;16.71;35.04
78932;BME280;68331;53.362;55.932;2023-06-22T07:36:33;99686.63;;;16.89;34.79
78932;BME280;68331;53.362;55.932;2023-06-22T07:39:04;99686.63;;;17.04;34.97
78932;BME280;68331;53.362;55.932;2023-06-22T07:41:30;99694.84;;;17.15;35.06
78932;BME280;68331;53.362;55.932;2023-06-22T07:43:57;99702.66;;;17.32;35.14
78932;BME280;68331;53.362;55.932;2023-06-22T07:46:23;99688.66;;;17.43;35.25
78932;BME280;68331;53.362;55.932;2023-06-22T07:48:49;99685.50;;;17.79;34.80
78932;BME280;68331;53.362;55.932;2023-06-22T07:51:15;99690.63;;;17.97;34.61
78932;BME280;68331;53.362;55.932;2023-06-22T07:53:43;99687.31;;;18.06;34.54
78932;BME280;68331;53.362;55.932;2023-06-22T07:56:13;99682.59;;;17.97;34.07
78932;BME280;68331;53.362;55.932;2023-06-22T07:58:39;99687.09;;;17.82;35.06
78932;BME280;68331;53.362;55.932;2023-06-22T08:01:05;99699.78;;;17.50;37.06
78932;BME280;68331;53.362;55.932;2023-06-22T08:03:32;99708.66;;;17.36;37.91
78932;BME280;68331;53.362;55.932;2023-06-22T08:05:58;99702.19;;;17.11;38.01
78932;BME280;68331;53.362;55.932;2023-06-22T08:08:24;99701.66;;;16.90;38.39
78932;BME280;68331;53.362;55.932;2023-06-22T08:10:50;99717.25;;;16.82;38.60
78932;BME280;68331;53.362;55.932;2023-06-22T08:13:16;99716.66;;;16.77;38.72
78932;BME280;68331;53.362;55.932;2023-06-22T08:15:42;99718.47;;;16.77;38.50
78932;BME280;68331;53.362;55.932;2023-06-22T08:18:08;99716.78;;;16.76;38.66
78932;BME280;68331;53.362;55.932;2023-06-22T08:20:34;99717.63;;;16.76;37.89
78932;BME280;68331;53.362;55.932;2023-06-22T08:23:00;99717.66;;;16.74;38.23
78932;BME280;68331;53.362;55.932;2023-06-22T08:25:35;99723.69;;;16.78;37.85
78932;BME280;68331;53.362;55.932;2023-06-22T08:28:04;99724.41;;;16.82;37.41
78932;BME280;68331;53.362;55.932;2023-06-22T08:30:31;99716.00;;;16.88;37.25
78932;BME280;68331;53.362;55.932;2023-06-22T08:32:57;99717.75;;;17.03;36.82
78932;BME280;68331;53.362;55.932;2023-06-22T08:35:23;99719.41;;;17.20;36.70
78932;BME280;68331;53.362;55.932;2023-06-22T08:37:50;99718.28;;;17.53;36.24
78932;BME280;68331;53.362;55.932;2023-06-22T08:40:19;99717.50;;;17.94;35.87
78932;BME280;68331;53.362;55.932;2023-06-22T08:42:46;99718.28;;;18.23;35.16
78932;BME280;68331;53.362;55.932;2023-06-22T08:45:13;99718.63;;;18.31;34.80
78932;BME280;68331;53.362;55.932;2023-06-22T08:47:40;99707.97;;;18.44;33.98
78932;BME280;68331;53.362;55.932;2023-06-22T08:50:07;99704.50;;;18.69;33.57
78932;BME280;68331;53.362;55.932;2023-06-22T08:52:34;99702.03;;;19.31;32.71
78932;BME280;68331;53.362;55.932;2023-06-22T08:55:01;99706.16;;;19.86;31.30
78932;BME280;68331;53.362;55.932;2023-06-22T08:57:31;99708.16;;;19.95;31.20
78932;BME280;68331;53.362;55.932;2023-06-22T08:59:59;99700.94;;;19.72;30.86
78932;BME280;68331;53.362;55.932;2023-06-22T09:02:28;99700.81;;;19.73;31.01
78932;BME280;68331;53.362;55.932;2023-06-22T09:04:59;99713.88;;;19.65;31.04
78932;BME280;68331;53.362;55.932;2023-06-22T09:07:25;99711.41;;;19.49;31.66
78932;BME280;68331;53.362;55.932;2023-06-22T09:09:52;99710.78;;;19.20;30.79
78932;BME280;68331;53.362;55.932;2023-06-22T09:12:20;99702.91;;;19.19;30.96
78932;BME280;68331;53.362;55.932;2023-06-22T09:14:48;99705.56;;;19.19;29.85
78932;BME280;68331;53.362;55.932;2023-06-22T09:17:15;99712.09;;;18.89;30.34
78932;BME280;68331;53.362;55.932;2023-06-22T09:19:41;99712.16;;;18.88;30.83
78932;BME280;68331;53.362;55.932;2023-06-22T09:22:06;99710.47;;;18.99;30.66
78932;BME280;68331;53.362;55.932;2023-06-22T09:24:33;99705.34;;;19.09;30.54
78932;BME280;68331;53.362;55.932;2023-06-22T09:26:59;99701.63;;;19.24;30.32
78932;BME280;68331;53.362;55.932;2023-06-22T09:29:25;99702.13;;;19.42;30.17
78932;BME280;68331;53.362;55.932;2023-06-22T09:31:51;99707.03;;;19.48;30.11
78932;BME280;68331;53.362;55.932;2023-06-22T09:34:19;99697.97;;;19.38;30.81
78932;BME280;68331;53.362;55.932;2023-06-22T09:36:46;99703.09;;;19.28;30.48
78932;BME280;68331;53.362;55.932;2023-06-22T09:39:13;99705.56;;;19.19;30.69
78932;BME280;68331;53.362;55.932;2023-06-22T09:41:39;99702.69;;;18.96;31.28
78932;BME280;68331;53.362;55.932;2023-06-22T09:44:05;99714.63;;;18.51;32.00
78932;BME280;68331;53.362;55.932;2023-06-22T09:46:31;99711.75;;;18.27;32.70
78932;BME280;68331;53.362;55.932;2023-06-22T09:48:58;99713.41;;;18.15;33.17
78932;BME280;68331;53.362;55.932;2023-06-22T09:51:24;99719.91;;;18.11;33.29
78932;BME280;68331;53.362;55.932;2023-06-22T09:53:50;99713.16;;;18.05;33.75
78932;BME280;68331;53.362;55.932;2023-06-22T09:56:16;99717.09;;;18.00;33.92
78932;BME280;68331;53.362;55.932;2023-06-22T09:58:44;99717.97;;;18.00;34.16
78932;BME280;68331;53.362;55.932;2023-06-22T10:01:10;99716.84;;;17.90;34.46
78932;BME280;68331;53.362;55.932;2023-06-22T10:03:37;99718.44;;;17.93;34.62
78932;BME280;68331;53.362;55.932;2023-06-22T10:06:03;99720.88;;;18.10;34.42
78932;BME280;68331;53.362;55.932;2023-06-22T10:08:30;99722.16;;;18.31;34.45
78932;BME280;68331;53.362;55.932;2023-06-22T10:10:56;99721.78;;;18.50;34.41
78932;BME280;68331;53.362;55.932;2023-06-22T10:13:22;99723.19;;;18.56;34.45
78932;BME280;68331;53.362;55.932;2023-06-22T10:15:48;99709.75;;;18.57;34.78
78932;BME280;68331;53.362;55.932;2023-06-22T10:18:18;99718.50;;;18.59;34.90
78932;BME280;68331;53.362;55.932;2023-06-22T10:20:46;99711.44;;;18.58;35.46
78932;BME280;68331;53.362;55.932;2023-06-22T10:23:13;99717.19;;;18.52;35.49
78932;BME280;68331;53.362;55.932;2023-06-22T10:25:39;99717.00;;;18.55;35.44
78932;BME280;68331;53.362;55.932;2023-06-22T10:28:05;99703.19;;;18.89;34.56
78932;BME280;68331;53.362;55.932;2023-06-22T10:30:31;99710.28;;;19.28;33.67
78932;BME280;68331;53.362;55.932;2023-06-22T10:32:57;99711.53;;;19.48;33.24
78932;BME280;68331;53.362;55.932;2023-06-22T10:35:23;99704.97;;;19.78;32.85
78932;BME280;68331;53.362;55.932;2023-06-22T10:37:49;99715.44;;;19.93;32.51
78932;BME280;68331;53.362;55.932;2023-06-22T10:40:17;99714.63;;;19.80;32.50
78932;BME280;68331;53.362;55.932;2023-06-22T10:42:44;99712.09;;;19.53;33.05
78932;BME280;68331;53.362;55.932;2023-06-22T10:45:10;99710.97;;;19.56;32.84
78932;BME280;68331;53.362;55.932;2023-06-22T10:47:37;99712.59;;;19.58;32.04
78932;BME280;68331;53.362;55.932;2023-06-22T10:50:03;99713.38;;;19.47;31.04
78932;BME280;68331;53.362;55.932;2023-06-22T10:52:31;99715.63;;;19.41;31.24
78932;BME280;68331;53.362;55.932;2023-06-22T10:54:57;99714.00;;;19.38;31.54
78932;BME280;68331;53.362;55.932;2023-06-22T10:57:24;99720.75;;;19.31;31.51
78932;BME280;68331;53.362;55.932;2023-06-22T10:59:50;99712.09;;;19.15;31.45
78932;BME280;68331;53.362;55.932;2023-06-22T11:02:17;99712.63;;;19.07;31.63
78932;BME280;68331;53.362;55.932;2023-06-22T11:04:43;99707.91;;;19.23;31.91
78932;BME280;68331;53.362;55.932;2023-06-22T11:07:09;99705.09;;;19.63;31.31
78932;BME280;68331;53.362;55.932;2023-06-22T11:09:36;99704.78;;;19.68;31.19
78932;BME280;68331;53.362;55.932;2023-06-22T11:12:02;99710.16;;;19.42;31.50
78932;BME280;68331;53.362;55.932;2023-06-22T11:14:28;99701.84;;;19.21;31.72
78932;BME280;68331;53.362;55.932;2023-06-22T11:16:54;99707.28;;;19.07;31.56
78932;BME280;68331;53.362;55.932;2023-06-22T11:19:21;99706.75;;;19.15;31.40
78932;BME280;68331;53.362;55.932;2023-06-22T11:21:47;99702.13;;;19.29;30.80
78932;BME280;68331;53.362;55.932;2023-06-22T11:24:13;99698.69;;;19.53;30.58
78932;BME280;68331;53.362;55.932;2023-06-22T11:26:40;99702.81;;;20.19;30.03
78932;BME280;68331;53.362;55.932;2023-06-22T11:29:06;99686.91;;;20.88;29.30
78932;BME280;68331;53.362;55.932;2023-06-22T11:31:33;99698.09;;;21.29;28.37
78932;BME280;68331;53.362;55.932;2023-06-22T11:33:59;99693.19;;;21.34;28.33
78932;BME280;68331;53.362;55.932;2023-06-22T11:36:26;99676.41;;;20.85;28.73
78932;BME280;68331;53.362;55.932;2023-06-22T11:38:52;99697.50;;;20.79;29.46
78932;BME280;68331;53.362;55.932;2023-06-22T11:41:18;99690.22;;;20.92;29.23
78932;BME280;68331;53.362;55.932;2023-06-22T11:43:45;99699.19;;;20.80;29.15
78932;BME280;68331;53.362;55.932;2023-06-22T11:46:11;99708.16;;;20.19;29.99
78932;BME280;68331;53.362;55.932;2023-06-22T11:48:37;99698.91;;;20.36;30.05
78932;BME280;68331;53.362;55.932;2023-06-22T11:51:04;99690.63;;;20.63;29.49
78932;BME280;68331;53.362;55.932;2023-06-22T11:53:32;99694.19;;;20.75;29.34
78932;BME280;68331;53.362;55.932;2023-06-22T11:55:58;99694.81;;;20.79;28.96
78932;BME280;68331;53.362;55.932;2023-06-22T11:58:25;99700.56;;;20.85;28.97
78932;BME280;68331;53.362;55.932;2023-06-22T12:00:51;99696.38;;;20.70;29.13
78932;BME280;68331;53.362;55.932;2023-06-22T12:03:18;99701.22;;;20.41;29.60
78932;BME280;68331;53.362;55.932;2023-06-22T12:05:44;99706.00;;;20.25;29.95
78932;BME280;68331;53.362;55.932;2023-06-22T12:08:10;99712.72;;;20.06;30.40
78932;BME280;68331;53.362;55.932;2023-06-22T12:10:38;99708.97;;;19.59;30.69
78932;BME280;68331;53.362;55.932;2023-06-22T12:13:04;99711.69;;;19.21;31.07
78932;BME280;68331;53.362;55.932;2023-06-22T12:15:31;99705.66;;;19.17;31.07
78932;BME280;68331;53.362;55.932;2023-06-22T12:17:57;99704.28;;;19.24;31.27
78932;BME280;68331;53.362;55.932;2023-06-22T12:20:23;99702.47;;;19.38;30.84
78932;BME280;68331;53.362;55.932;2023-06-22T12:22:49;99715.94;;;19.36;31.36
78932;BME280;68331;53.362;55.932;2023-06-22T12:25:17;99712.75;;;19.18;31.56
78932;BME280;68331;53.362;55.932;2023-06-22T12:27:44;99713.03;;;19.14;31.82
78932;BME280;68331;53.362;55.932;2023-06-22T12:30:11;99711.34;;;19.13;32.17
78932;BME280;68331;53.362;55.932;2023-06-22T12:32:37;99710.69;;;19.09;32.40
78932;BME280;68331;53.362;55.932;2023-06-22T12:35:03;99705.78;;;19.03;32.49
78932;BME280;68331;53.362;55.932;2023-06-22T12:37:30;99701.91;;;18.94;32.42
78932;BME280;68331;53.362;55.932;2023-06-22T12:39:57;99712.16;;;18.88;32.58
78932;BME280;68331;53.362;55.932;2023-06-22T12:42:23;99706.25;;;18.70;33.01
78932;BME280;68331;53.362;55.932;2023-06-22T12:44:49;99709.59;;;18.46;33.16
78932;BME280;68331;53.362;55.932;2023-06-22T12:47:15;99710.81;;;18.28;33.66
78932;BME280;68331;53.362;55.932;2023-06-22T12:49:42;99715.16;;;18.16;34.16
78932;BME280;68331;53.362;55.932;2023-06-22T12:52:11;99715.75;;;18.07;34.27
78932;BME280;68331;53.362;55.932;2023-06-22T12:54:37;99714.25;;;17.88;34.46
78932;BME280;68331;53.362;55.932;2023-06-22T12:57:03;99711.09;;;17.67;34.65
78932;BME280;68331;53.362;55.932;2023-06-22T12:59:30;99719.44;;;17.49;34.63